Skip Navigation Links
NOAA logo - Click to go to the NOAA homepage
NOAA's National Weather Service
Alaska Aviation Weather Unit
  NWS logo - Click to go to the NWS homepage
Left Navbar Graphic     03 AKDT = 11 GMT

   
NOAA is celebrating 200 years of science, service, and stewardship. Visit the NOAA 200th celebration Web site to learn more.
USA.gov is the U.S. Government's official Web portal to all Federal, state and local government Web resources and services.
Facebook
NWS on Facebook

AAWU Home :: Display TAF Add Bookmark
TAF PAGK 290522Z 2906/3006 14008KT P6SM OVC080
     FM290900 15006KT P6SM BKN100
     FM300000 15010KT P6SM BKN100=

METAR PAGK 290553Z AUTO 08005KT 10SM CLR 01/M04 A2948 RMK AO2 SLP013 T00061044 10044 20000 53008 TSNO= PAGK 290653Z AUTO 10004KT 10SM FEW065 00/M05 A2949 RMK SLP014 T00001050 TSNO VIA AUTODIAL= METAR PAGK 290753Z AUTO 11003KT 10SM CLR M01/M06 A2949 RMK AO2 SLP013 T10061056 TSNO= METAR PAGK 290853Z AUTO 00000KT 10SM CLR M03/M06 A2948 RMK AO2 SLP013 T10331061 400441122 50000 TSNO= METAR PAGK 290953Z AUTO 09007KT 10SM CLR M01/M06 A2949 RMK AO2 SLP009 T10061061 TSNO= METAR PAGK 291053Z AUTO 04006KT 10SM CLR M01/M07 A2948 RMK SLP006 T10111072 TSNO VIA AUTODIAL=
 Alaska TAF Map

NOAA's National Weather Service
Alaska Aviation Weather Unit
6930 Sand Lake Road
Anchorage, AK 99502-1845
Disclaimer
Credits
Glossary
Privacy Policy
About Us
Career Opportunities
Contact AAWU Internet Services Site last modified: April, 17th 2012